createdAt,value
2017-11-04T00:00:30.430Z,13.10
2017-11-04T00:02:58.001Z,12.90
2017-11-04T00:05:25.567Z,12.90
2017-11-04T00:07:52.378Z,12.80
2017-11-04T00:10:19.225Z,13.00
2017-11-04T00:12:46.064Z,12.80
2017-11-04T00:15:12.984Z,12.70
2017-11-04T00:17:39.774Z,12.90
2017-11-04T00:20:07.477Z,13.40
2017-11-04T00:22:34.378Z,13.30
2017-11-04T00:25:01.941Z,13.10
2017-11-04T00:27:29.500Z,13.00
2017-11-04T00:29:57.079Z,12.90
2017-11-04T00:32:24.634Z,12.90
2017-11-04T00:34:52.204Z,12.90
2017-11-04T00:37:19.005Z,12.90
2017-11-04T00:39:45.814Z,12.80
2017-11-04T00:42:12.615Z,12.60
2017-11-04T00:44:40.173Z,12.60
2017-11-04T00:47:07.726Z,12.70
2017-11-04T00:49:35.300Z,12.80
2017-11-04T00:52:02.876Z,12.70
2017-11-04T00:54:29.675Z,12.70
2017-11-04T00:56:56.465Z,12.70
2017-11-04T00:59:23.263Z,12.70
2017-11-04T01:01:50.070Z,12.70
2017-11-04T01:04:16.878Z,12.70
2017-11-04T01:06:44.439Z,12.80
2017-11-04T01:09:11.991Z,12.70
2017-11-04T01:11:39.563Z,12.80
2017-11-04T01:14:06.374Z,12.80
2017-11-04T01:16:33.161Z,13.00
2017-11-04T01:18:59.986Z,13.00
2017-11-04T01:21:27.549Z,12.90
2017-11-04T01:23:55.119Z,13.00
2017-11-04T01:26:21.922Z,12.90
2017-11-04T01:28:48.727Z,13.20
2017-11-04T01:31:15.522Z,13.30
2017-11-04T01:33:42.310Z,13.10
2017-11-04T01:36:09.115Z,13.10
2017-11-04T01:38:36.669Z,13.20
2017-11-04T01:41:03.467Z,13.20
2017-11-04T01:43:30.253Z,13.10
2017-11-04T01:45:57.043Z,12.90
2017-11-04T01:48:23.347Z,12.80
2017-11-04T01:50:50.911Z,12.70
2017-11-04T01:53:18.478Z,12.60
2017-11-04T01:55:45.266Z,12.60
2017-11-04T01:58:12.053Z,12.70
2017-11-04T02:00:39.611Z,12.90
2017-11-04T02:03:07.172Z,13.00
2017-11-04T02:05:34.744Z,13.10
2017-11-04T02:08:01.550Z,13.00
2017-11-04T02:10:28.345Z,13.10
2017-11-04T02:12:55.142Z,13.10
2017-11-04T02:15:21.930Z,13.00
2017-11-04T02:17:48.735Z,13.10
2017-11-04T02:20:16.299Z,12.80
2017-11-04T02:22:43.854Z,12.70
2017-11-04T02:25:11.420Z,12.60
2017-11-04T02:27:38.984Z,12.50
2017-11-04T02:30:06.556Z,12.60
2017-11-04T02:32:33.375Z,12.60
2017-11-04T02:35:00.950Z,12.80
2017-11-04T02:37:28.511Z,12.70
2017-11-04T02:39:56.075Z,12.70
2017-11-04T02:42:23.639Z,12.70
2017-11-04T02:44:51.208Z,12.60
2017-11-04T02:47:18.001Z,12.60
2017-11-04T02:49:44.795Z,12.60
2017-11-04T02:52:11.603Z,12.70
2017-11-04T02:54:38.412Z,12.90
2017-11-04T02:57:05.207Z,13.00
2017-11-04T02:59:32.761Z,12.80
2017-11-04T03:02:00.318Z,12.90
2017-11-04T03:04:27.107Z,12.80
2017-11-04T03:06:53.908Z,13.00
2017-11-04T03:09:21.474Z,13.30
2017-11-04T03:11:49.034Z,13.50
2017-11-04T03:14:16.589Z,14.30
2017-11-04T03:16:44.151Z,14.20
2017-11-04T03:19:11.718Z,13.70
2017-11-04T03:21:39.273Z,13.40
2017-11-04T03:24:06.835Z,13.30
2017-11-04T03:26:34.491Z,13.30
2017-11-04T03:29:02.060Z,13.30
2017-11-04T03:31:29.620Z,13.10
2017-11-04T03:33:57.180Z,13.00
2017-11-04T03:36:24.743Z,13.00
2017-11-04T03:38:52.312Z,13.00
2017-11-04T03:41:19.870Z,13.20
2017-11-04T03:43:47.422Z,13.00
2017-11-04T03:46:14.983Z,13.10
2017-11-04T03:48:42.541Z,12.90
2017-11-04T03:51:10.226Z,13.00
2017-11-04T03:53:37.034Z,13.00
2017-11-04T03:56:04.611Z,13.00
2017-11-04T03:58:32.161Z,12.90
2017-11-04T04:00:58.947Z,12.90
2017-11-04T04:03:25.756Z,12.90
2017-11-04T04:05:53.309Z,13.20
2017-11-04T04:08:20.108Z,13.10
2017-11-04T04:10:46.908Z,13.20
2017-11-04T04:13:14.480Z,13.20
2017-11-04T04:15:42.029Z,13.20
2017-11-04T04:18:09.583Z,13.20
2017-11-04T04:20:37.145Z,13.30
2017-11-04T04:23:04.718Z,13.30
2017-11-04T04:25:32.282Z,13.30
2017-11-04T04:27:59.845Z,13.50
2017-11-04T04:30:26.647Z,13.40
2017-11-04T04:32:53.446Z,13.30
2017-11-04T04:35:20.242Z,13.30
2017-11-04T04:37:47.035Z,13.30
2017-11-04T04:40:13.836Z,13.40
2017-11-04T04:42:41.395Z,13.10
2017-11-04T04:45:08.969Z,13.10
2017-11-04T04:47:36.560Z,13.00
2017-11-04T04:50:03.369Z,13.00
2017-11-04T04:52:30.950Z,13.10
2017-11-04T04:54:57.755Z,13.00
2017-11-04T04:57:24.568Z,13.10
2017-11-04T04:59:51.379Z,13.00
2017-11-04T05:02:18.187Z,12.90
2017-11-04T05:04:44.990Z,12.90
2017-11-04T05:07:11.777Z,12.90
2017-11-04T05:09:38.576Z,12.90
2017-11-04T05:12:05.377Z,12.90
2017-11-04T05:14:32.944Z,13.00
2017-11-04T05:17:00.542Z,13.00
2017-11-04T05:19:27.330Z,13.00
2017-11-04T05:21:54.933Z,13.10
2017-11-04T05:24:21.739Z,13.00
2017-11-04T05:26:49.298Z,13.10
2017-11-04T05:29:16.871Z,13.20
2017-11-04T05:31:44.431Z,13.10
2017-11-04T05:34:12.018Z,13.10
2017-11-04T05:36:38.823Z,13.10
2017-11-04T05:39:06.396Z,13.20
2017-11-04T05:41:33.963Z,13.30
2017-11-04T05:44:01.518Z,13.60
2017-11-04T05:46:29.083Z,13.80
2017-11-04T05:48:58.460Z,13.50
2017-11-04T05:51:25.269Z,13.50
2017-11-04T05:53:52.073Z,13.50
2017-11-04T05:56:19.655Z,13.40
2017-11-04T05:58:46.454Z,13.40
2017-11-04T06:01:14.017Z,13.40
2017-11-04T06:03:40.817Z,13.40
2017-11-04T06:06:07.614Z,13.40
2017-11-04T06:08:35.188Z,13.50
2017-11-04T06:11:01.986Z,13.40
2017-11-04T06:13:28.781Z,13.40
2017-11-04T06:15:55.594Z,13.50
2017-11-04T06:18:23.153Z,13.90
2017-11-04T06:20:50.706Z,13.80
2017-11-04T06:23:17.498Z,13.80
2017-11-04T06:25:44.286Z,13.70
2017-11-04T06:28:11.074Z,13.50
2017-11-04T06:30:37.868Z,13.60
2017-11-04T06:33:04.671Z,13.50
2017-11-04T06:35:31.472Z,13.70
2017-11-04T06:37:59.034Z,13.60
2017-11-04T06:40:26.593Z,13.70
2017-11-04T06:42:54.162Z,13.60
2017-11-04T06:45:21.721Z,13.40
2017-11-04T06:47:49.299Z,13.30
2017-11-04T06:50:16.094Z,13.30
2017-11-04T06:52:42.886Z,13.30
2017-11-04T06:55:09.687Z,13.50
2017-11-04T06:57:37.989Z,13.40
2017-11-04T07:00:05.554Z,13.40
2017-11-04T07:02:33.123Z,13.40
2017-11-04T07:04:59.988Z,13.30
2017-11-04T07:07:26.774Z,13.70
2017-11-04T07:09:53.574Z,13.60
2017-11-04T07:12:20.362Z,13.60
2017-11-04T07:14:47.160Z,13.60
2017-11-04T07:17:13.962Z,13.60
2017-11-04T07:19:41.526Z,13.30
2017-11-04T07:22:09.096Z,13.50
2017-11-04T07:24:36.671Z,13.50
2017-11-04T07:27:03.474Z,13.40
2017-11-04T07:29:30.267Z,13.50
2017-11-04T07:31:57.062Z,13.50
2017-11-04T07:34:23.853Z,13.40
2017-11-04T07:36:50.646Z,13.40
2017-11-04T07:39:17.430Z,13.60
2017-11-04T07:41:44.232Z,13.70
2017-11-04T07:44:11.020Z,13.70
2017-11-04T07:46:37.818Z,13.60
2017-11-04T07:49:04.615Z,13.60
2017-11-04T07:51:31.405Z,13.70
2017-11-04T07:53:59.716Z,13.90
2017-11-04T07:56:26.519Z,13.90
2017-11-04T07:58:53.316Z,13.70
2017-11-04T08:01:20.111Z,13.80
2017-11-04T08:03:46.906Z,13.70
2017-11-04T08:06:13.697Z,13.60
2017-11-04T08:08:40.491Z,13.60
2017-11-04T08:11:07.279Z,13.70
2017-11-04T08:13:34.091Z,13.90
2017-11-04T08:16:00.883Z,13.90
2017-11-04T08:18:28.438Z,13.80
2017-11-04T08:20:56.007Z,13.60
2017-11-04T08:23:23.580Z,13.70
2017-11-04T08:25:50.379Z,13.70
2017-11-04T08:28:17.172Z,13.70
2017-11-04T08:30:44.834Z,13.70
2017-11-04T08:33:11.626Z,13.70
2017-11-04T08:35:38.431Z,13.70
2017-11-04T08:38:05.226Z,13.90
2017-11-04T08:40:32.018Z,13.80
2017-11-04T08:42:58.833Z,14.10
2017-11-04T08:45:26.389Z,14.00
2017-11-04T08:47:53.964Z,13.90
2017-11-04T08:50:20.765Z,13.90
2017-11-04T08:52:47.571Z,13.90
2017-11-04T08:55:14.376Z,14.00
2017-11-04T08:57:41.955Z,14.00
2017-11-04T09:00:08.741Z,14.00
2017-11-04T09:02:35.543Z,14.00
2017-11-04T09:05:02.349Z,14.00
2017-11-04T09:07:29.134Z,14.30
2017-11-04T09:09:55.931Z,14.10
2017-11-04T09:12:22.731Z,14.10
2017-11-04T09:14:49.526Z,14.00
2017-11-04T09:17:16.336Z,14.00
2017-11-04T09:19:43.130Z,14.00
2017-11-04T09:22:10.706Z,14.00
2017-11-04T09:24:37.507Z,14.00
2017-11-04T09:27:04.308Z,14.00
2017-11-04T09:29:31.128Z,14.00
2017-11-04T09:31:57.922Z,14.10
2017-11-04T09:34:24.731Z,14.20
2017-11-04T09:36:51.562Z,14.20
2017-11-04T09:39:18.368Z,14.20
2017-11-04T09:41:45.194Z,14.20
2017-11-04T09:44:11.990Z,14.20
2017-11-04T09:46:38.789Z,14.20
2017-11-04T09:49:05.588Z,14.10
2017-11-04T09:51:32.386Z,14.30
2017-11-04T09:53:59.967Z,14.60
2017-11-04T09:56:27.545Z,14.70
2017-11-04T09:58:54.360Z,14.60
2017-11-04T10:01:21.941Z,14.40
2017-11-04T10:03:48.767Z,14.30
2017-11-04T10:06:16.343Z,14.30
2017-11-04T10:08:43.168Z,14.30
2017-11-04T10:11:10.733Z,14.20
2017-11-04T10:13:38.317Z,14.20
2017-11-04T10:16:05.132Z,14.20
2017-11-04T10:18:32.755Z,14.20
2017-11-04T10:20:59.552Z,14.20
2017-11-04T10:23:27.215Z,14.50
2017-11-04T10:25:54.824Z,14.40
2017-11-04T10:28:21.621Z,14.30
2017-11-04T10:30:49.117Z,14.70
2017-11-04T10:33:16.628Z,14.50
2017-11-04T10:35:44.966Z,14.40
2017-11-04T10:38:12.480Z,14.30
2017-11-04T10:40:40.056Z,14.40
2017-11-04T10:43:07.549Z,14.50
2017-11-04T10:45:35.069Z,14.40
2017-11-04T10:48:02.554Z,14.40
2017-11-04T10:50:30.111Z,14.40
2017-11-04T10:52:57.633Z,14.40
2017-11-04T10:55:25.905Z,14.50
2017-11-04T10:57:53.422Z,14.40
2017-11-04T11:00:20.919Z,14.50
2017-11-04T11:02:49.183Z,14.50
2017-11-04T11:05:16.687Z,14.50
2017-11-04T11:07:44.225Z,14.50
2017-11-04T11:10:11.744Z,14.50
2017-11-04T11:12:39.239Z,14.80
2017-11-04T11:15:07.508Z,14.60
2017-11-04T11:17:35.764Z,14.60
2017-11-04T11:20:03.255Z,14.50
2017-11-04T11:22:31.523Z,14.80
2017-11-04T11:24:59.785Z,14.80
2017-11-04T11:27:27.285Z,14.80
2017-11-04T11:29:54.792Z,14.70
2017-11-04T11:32:22.317Z,14.70
2017-11-04T11:34:49.826Z,14.70
2017-11-04T11:37:17.318Z,14.80
2017-11-04T11:39:44.810Z,14.80
2017-11-04T11:42:12.307Z,14.70
2017-11-04T11:44:39.795Z,14.70
2017-11-04T11:47:07.286Z,14.70
2017-11-04T11:49:34.783Z,14.80
2017-11-04T11:52:02.289Z,14.90
2017-11-04T11:54:29.792Z,14.90
2017-11-04T11:56:57.292Z,14.90
2017-11-04T11:59:24.789Z,14.90
2017-11-04T12:01:52.287Z,14.80
2017-11-04T12:04:20.543Z,14.90
2017-11-04T12:06:48.030Z,14.90
2017-11-04T12:09:16.289Z,14.90
2017-11-04T12:11:44.559Z,14.90
2017-11-04T12:14:12.058Z,14.80
2017-11-04T12:16:39.558Z,14.90
2017-11-04T12:19:07.062Z,15.00
2017-11-04T12:21:35.332Z,15.00
2017-11-04T12:24:03.599Z,15.00
2017-11-04T12:26:31.104Z,14.90
2017-11-04T12:28:58.618Z,15.40
2017-11-04T12:31:26.123Z,15.70
2017-11-04T12:33:53.621Z,15.90
2017-11-04T12:36:21.113Z,16.30
2017-11-04T12:38:49.383Z,15.40
2017-11-04T12:41:17.655Z,15.20
2017-11-04T12:43:45.918Z,15.20
2017-11-04T12:46:13.424Z,15.20
2017-11-04T12:48:40.913Z,15.50
2017-11-04T12:51:08.421Z,15.70
2017-11-04T12:53:36.685Z,15.40
2017-11-04T12:56:04.189Z,15.30
2017-11-04T12:58:31.686Z,15.40
2017-11-04T13:00:59.194Z,15.40
2017-11-04T13:03:26.694Z,15.40
2017-11-04T13:05:54.189Z,15.20
2017-11-04T13:08:22.451Z,15.20
2017-11-04T13:10:49.984Z,15.20
2017-11-04T13:13:18.303Z,15.10
2017-11-04T13:15:45.953Z,15.10
2017-11-04T13:18:14.265Z,15.40
2017-11-04T13:20:41.783Z,15.30
2017-11-04T13:23:09.290Z,15.40
2017-11-04T13:25:36.865Z,15.70
2017-11-04T13:28:04.527Z,15.90
2017-11-04T13:30:32.101Z,16.00
2017-11-04T13:32:59.618Z,15.80
2017-11-04T13:35:27.891Z,15.50
2017-11-04T13:37:56.150Z,15.30
2017-11-04T13:40:23.691Z,15.30
2017-11-04T13:42:51.211Z,15.40
2017-11-04T13:45:18.755Z,15.50
2017-11-04T13:47:47.026Z,15.30
2017-11-04T13:50:15.377Z,15.30
2017-11-04T13:52:42.886Z,15.20
2017-11-04T13:55:10.386Z,15.40
2017-11-04T13:57:38.026Z,15.30
2017-11-04T14:00:05.550Z,15.30
2017-11-04T14:02:33.962Z,15.70
2017-11-04T14:05:01.479Z,15.70
2017-11-04T14:07:29.734Z,15.80
2017-11-04T14:09:57.234Z,15.70
2017-11-04T14:12:24.922Z,15.90
2017-11-04T14:14:52.465Z,15.90
2017-11-04T14:17:19.968Z,16.10
2017-11-04T14:19:47.475Z,15.80
2017-11-04T14:22:15.761Z,15.90
2017-11-04T14:24:43.280Z,15.90
2017-11-04T14:27:10.838Z,15.90
2017-11-04T14:29:38.362Z,16.20
2017-11-04T14:32:05.875Z,16.20
2017-11-04T14:34:34.175Z,16.00
2017-11-04T14:37:01.703Z,16.00
2017-11-04T14:39:29.985Z,15.80
2017-11-04T14:41:57.483Z,15.70
2017-11-04T14:44:25.045Z,15.90
2017-11-04T14:46:52.548Z,15.70
2017-11-04T14:49:20.069Z,15.60
2017-11-04T14:51:47.582Z,15.50
2017-11-04T14:54:15.156Z,15.50
2017-11-04T14:56:43.422Z,15.40
2017-11-04T14:59:10.934Z,15.40
2017-11-04T15:01:38.542Z,15.70
2017-11-04T15:04:06.931Z,15.80
2017-11-04T15:06:35.315Z,15.60
2017-11-04T15:09:03.582Z,15.60
2017-11-04T15:11:32.457Z,15.50
2017-11-04T15:14:00.795Z,15.60
2017-11-04T15:16:28.338Z,15.50
2017-11-04T15:18:55.835Z,15.60
2017-11-04T15:21:23.439Z,15.50
2017-11-04T15:23:51.793Z,15.60
2017-11-04T15:26:19.337Z,15.50
2017-11-04T15:28:46.838Z,15.50
2017-11-04T15:31:15.186Z,15.50
2017-11-04T15:33:42.886Z,15.40
2017-11-04T15:36:11.151Z,15.50
2017-11-04T15:38:39.511Z,15.40
2017-11-04T15:41:07.010Z,15.40
2017-11-04T15:43:35.312Z,15.50
2017-11-04T15:46:02.813Z,15.40
2017-11-04T15:48:30.438Z,15.40
2017-11-04T15:50:57.940Z,15.30
2017-11-04T15:53:25.604Z,15.30
2017-11-04T15:55:53.108Z,15.20
2017-11-04T15:58:20.822Z,15.20
2017-11-04T16:00:48.444Z,15.30
2017-11-04T16:03:15.943Z,15.50
2017-11-04T16:05:43.443Z,15.40
2017-11-04T16:08:10.946Z,15.30
2017-11-04T16:10:38.599Z,15.20
2017-11-04T16:13:06.100Z,15.20
2017-11-04T16:15:34.482Z,15.10
2017-11-04T16:18:02.765Z,15.20
2017-11-04T16:20:31.027Z,15.10
2017-11-04T16:22:58.613Z,15.10
2017-11-04T16:25:26.961Z,15.10
2017-11-04T16:27:54.642Z,15.00
2017-11-04T16:30:22.964Z,15.00
2017-11-04T16:32:50.459Z,15.00
2017-11-04T16:35:18.730Z,14.90
2017-11-04T16:37:46.222Z,14.90
2017-11-04T16:40:14.482Z,15.00
2017-11-04T16:42:42.745Z,15.00
2017-11-04T16:45:10.229Z,15.00
2017-11-04T16:47:38.511Z,15.10
2017-11-04T16:50:06.769Z,15.10
2017-11-04T16:52:34.260Z,15.00
2017-11-04T16:55:01.763Z,15.00
2017-11-04T16:57:29.258Z,15.00
2017-11-04T16:59:57.538Z,15.10
2017-11-04T17:02:25.820Z,15.20
2017-11-04T17:04:54.083Z,15.00
2017-11-04T17:07:21.578Z,15.00
2017-11-04T17:09:49.069Z,15.00
2017-11-04T17:12:16.570Z,15.00
2017-11-04T17:14:44.838Z,14.90
2017-11-04T17:17:12.330Z,14.90
2017-11-04T17:19:39.837Z,14.90
2017-11-04T17:22:07.330Z,14.90
2017-11-04T17:24:35.591Z,14.90
2017-11-04T17:27:03.085Z,14.90
2017-11-04T17:29:30.580Z,14.90
2017-11-04T17:31:58.070Z,14.90
2017-11-04T17:34:25.563Z,14.90
2017-11-04T17:36:53.052Z,14.90
2017-11-04T17:39:20.550Z,14.90
2017-11-04T17:41:48.811Z,14.80
2017-11-04T17:44:16.312Z,14.80
2017-11-04T17:46:43.807Z,14.90
2017-11-04T17:49:11.312Z,14.90
2017-11-04T17:51:39.582Z,14.80
2017-11-04T17:54:07.087Z,14.70
2017-11-04T17:56:34.588Z,14.80
2017-11-04T17:59:02.854Z,14.90
2017-11-04T18:01:30.351Z,14.80
2017-11-04T18:03:58.624Z,14.80
2017-11-04T18:06:26.906Z,14.80
2017-11-04T18:08:55.174Z,14.80
2017-11-04T18:11:23.450Z,14.70
2017-11-04T18:13:51.710Z,14.80
2017-11-04T18:16:19.211Z,14.80
2017-11-04T18:18:46.706Z,14.80
2017-11-04T18:21:14.205Z,14.80
2017-11-04T18:23:42.480Z,14.80
2017-11-04T18:26:10.746Z,14.70
2017-11-04T18:28:38.234Z,14.70
2017-11-04T18:31:06.510Z,14.80
2017-11-04T18:33:34.974Z,14.80
2017-11-04T18:36:03.270Z,14.70
2017-11-04T18:38:30.774Z,14.70
2017-11-04T18:40:58.338Z,14.70
2017-11-04T18:43:25.829Z,14.70
2017-11-04T18:45:53.435Z,14.70
2017-11-04T18:48:20.955Z,14.70
2017-11-04T18:50:49.406Z,14.60
2017-11-04T18:53:16.908Z,14.60
2017-11-04T18:55:45.157Z,14.70
2017-11-04T18:58:12.730Z,14.60
2017-11-04T19:00:41.050Z,14.70
2017-11-04T19:03:08.546Z,14.70
2017-11-04T19:05:36.050Z,14.70
2017-11-04T19:08:03.646Z,14.70
2017-11-04T19:10:31.156Z,14.60
2017-11-04T19:12:59.414Z,14.70
2017-11-04T19:15:26.937Z,14.70
2017-11-04T19:17:54.432Z,14.80
2017-11-04T19:20:22.714Z,14.70
2017-11-04T19:22:51.075Z,14.80
2017-11-04T19:25:18.566Z,14.70
2017-11-04T19:27:46.962Z,14.80
2017-11-04T19:30:14.454Z,14.80
2017-11-04T19:32:41.988Z,14.70
2017-11-04T19:35:09.510Z,14.70
2017-11-04T19:37:37.123Z,14.70
2017-11-04T19:40:04.714Z,14.60
2017-11-04T19:42:32.208Z,14.60
2017-11-04T19:45:00.479Z,14.60
2017-11-04T19:47:29.422Z,14.60
2017-11-04T19:49:56.914Z,14.60
2017-11-04T19:52:24.512Z,14.50
2017-11-04T19:54:52.842Z,14.40
2017-11-04T19:57:20.334Z,14.40
2017-11-04T19:59:48.633Z,14.40
2017-11-04T20:02:16.144Z,14.30
2017-11-04T20:04:43.647Z,14.40
2017-11-04T20:07:11.332Z,14.30
2017-11-04T20:09:38.871Z,14.30
2017-11-04T20:12:07.170Z,14.40
2017-11-04T20:14:34.671Z,14.40
2017-11-04T20:17:02.975Z,14.40
2017-11-04T20:19:31.251Z,14.40
2017-11-04T20:21:59.666Z,14.30
2017-11-04T20:24:27.203Z,14.30
2017-11-04T20:26:55.471Z,14.30
2017-11-04T20:29:23.748Z,14.50
2017-11-04T20:31:52.018Z,14.70
2017-11-04T20:34:20.297Z,14.60
2017-11-04T20:36:48.559Z,14.50
2017-11-04T20:39:16.129Z,14.50
2017-11-04T20:41:43.659Z,14.50
2017-11-04T20:44:11.180Z,14.60
2017-11-04T20:46:38.681Z,14.60
2017-11-04T20:49:06.180Z,14.50
2017-11-04T20:51:34.438Z,14.60
2017-11-04T20:54:03.497Z,14.50
2017-11-04T20:56:31.146Z,14.50
2017-11-04T20:58:58.651Z,14.50
2017-11-04T21:01:26.167Z,14.60
2017-11-04T21:03:54.692Z,14.50
2017-11-04T21:06:22.997Z,14.70
2017-11-04T21:08:51.301Z,14.60
2017-11-04T21:11:18.973Z,14.60
2017-11-04T21:13:46.535Z,14.70
2017-11-04T21:16:14.055Z,14.50
2017-11-04T21:18:42.360Z,14.70
2017-11-04T21:21:09.886Z,14.60
2017-11-04T21:23:38.146Z,14.70
2017-11-04T21:26:05.651Z,14.70
2017-11-04T21:28:33.170Z,14.60
2017-11-04T21:31:01.457Z,14.50
2017-11-04T21:33:29.722Z,14.60
2017-11-04T21:35:57.218Z,14.60
2017-11-04T21:38:24.719Z,14.50
2017-11-04T21:40:52.228Z,14.50
2017-11-04T21:43:20.490Z,15.20
2017-11-04T21:45:48.771Z,15.60
2017-11-04T21:48:19.166Z,15.20
2017-11-04T21:50:46.913Z,15.10
2017-11-04T21:53:14.416Z,14.90
2017-11-04T21:55:42.878Z,14.60
2017-11-04T21:58:10.381Z,14.50
2017-11-04T22:00:38.633Z,14.50
2017-11-04T22:03:06.129Z,14.50
2017-11-04T22:05:51.698Z,14.60
2017-11-04T22:08:19.910Z,14.60
2017-11-04T22:10:48.090Z,14.70
2017-11-04T22:13:15.954Z,14.70
2017-11-04T22:15:44.407Z,14.70
2017-11-04T22:18:13.123Z,14.90
2017-11-04T22:20:42.528Z,14.80
2017-11-04T22:23:11.014Z,14.80
2017-11-04T22:25:39.291Z,14.60
2017-11-04T22:28:07.157Z,14.90
2017-11-04T22:30:35.435Z,14.70
2017-11-04T22:33:03.834Z,14.90
2017-11-04T22:35:32.364Z,14.70
2017-11-04T22:38:00.124Z,14.80
2017-11-04T22:40:28.541Z,14.70
2017-11-04T22:42:57.539Z,14.80
2017-11-04T22:45:26.019Z,14.80
2017-11-04T22:47:54.402Z,14.70
2017-11-04T22:50:22.573Z,15.00
2017-11-04T22:52:50.753Z,14.90
2017-11-04T22:55:19.030Z,14.50
2017-11-04T22:57:47.149Z,14.30
2017-11-04T23:00:15.339Z,14.30
2017-11-04T23:02:43.408Z,14.30
2017-11-04T23:05:11.212Z,14.30
2017-11-04T23:07:40.247Z,14.30
2017-11-04T23:10:09.658Z,14.70
2017-11-04T23:12:38.712Z,15.10
2017-11-04T23:15:06.576Z,15.10
2017-11-04T23:17:35.296Z,15.00
2017-11-04T23:20:03.442Z,15.40
2017-11-04T23:22:31.434Z,15.60
2017-11-04T23:24:59.997Z,14.50
2017-11-04T23:27:28.172Z,14.40
2017-11-04T23:29:55.829Z,14.30
2017-11-04T23:32:23.600Z,14.20
2017-11-04T23:34:51.302Z,14.30
2017-11-04T23:37:19.769Z,14.00
2017-11-04T23:39:47.615Z,13.90
2017-11-04T23:42:15.479Z,14.00
2017-11-04T23:44:43.246Z,14.10
2017-11-04T23:47:10.932Z,14.00
2017-11-04T23:49:38.778Z,14.00
2017-11-04T23:52:06.412Z,14.00
2017-11-04T23:54:34.208Z,14.00
2017-11-04T23:57:01.974Z,14.00
2017-11-04T23:59:29.663Z,13.90
